Time;durP1;ratioP1;P1;durP2;ratioP2;P2;SDS_P1;SDS_P2;PMS_P1;PMS_P2;Temp;Humidity;BMP_temperature;BMP_pressure;BME280_temperature;BME280_humidity;BME280_pressure;Samples;Min_cycle;Max_cycle;Signal;HPM_P1;HPM_P2
2023/10/06 00:00:42;;;;;;;;;;;;;;;20.59;30.32;98489.53;5056458;28;960;-78
2023/10/06 00:03:11;;;;;;;;;;;;;;;20.86;29.67;98491.53;5056123;28;1130;-77
2023/10/06 00:05:48;;;;;;;;;;;;;;;20.60;30.15;98495.97;5056391;28;1243;-77
2023/10/06 00:08:31;;;;;;;;;;;;;;;20.91;29.79;98494.69;5039557;28;1504;-77
2023/10/06 00:11:10;;;;;;;;;;;;;;;20.78;30.10;98491.66;5056468;28;1041;-78
2023/10/06 00:13:37;;;;;;;;;;;;;;;20.70;29.94;98484.50;5055810;28;1898;-77
2023/10/06 00:16:05;;;;;;;;;;;;;;;20.62;30.28;98480.19;5057857;28;856;-77
2023/10/06 00:18:35;;;;;;;;;;;;;;;20.77;29.80;98484.38;5055805;28;1150;-77
2023/10/06 00:21:05;;;;;;;;;;;;;;;20.97;29.44;98486.50;5036027;28;1181;-77
2023/10/06 00:23:31;;;;;;;;;;;;;;;20.92;29.82;98484.16;5018915;28;1049;-77
2023/10/06 00:25:56;;;;;;;;;;;;;;;20.69;30.07;98477.25;5034916;28;1122;-78
2023/10/06 00:28:25;;;;;;;;;;;;;;;20.79;30.10;98481.94;5018094;28;1353;-78
2023/10/06 00:30:57;;;;;;;;;;;;;;;20.98;29.79;98480.41;4986741;28;1249;-78
2023/10/06 00:33:33;;;;;;;;;;;;;;;20.72;29.97;98476.38;5018602;28;1902;-77
2023/10/06 00:35:59;;;;;;;;;;;;;;;20.76;29.86;98477.13;5019634;28;1219;-78
2023/10/06 00:38:27;;;;;;;;;;;;;;;20.79;29.90;98479.13;5001889;28;919;-77
2023/10/06 00:40:52;;;;;;;;;;;;;;;21.04;29.47;98475.09;5019007;28;1071;-77
2023/10/06 00:43:28;;;;;;;;;;;;;;;20.66;30.08;98472.44;5031813;28;1061;-78
2023/10/06 00:45:54;;;;;;;;;;;;;;;20.58;30.06;98470.97;5022417;28;1220;-77
2023/10/06 00:48:19;;;;;;;;;;;;;;;21.03;29.42;98467.81;5054403;28;1028;-77
2023/10/06 00:50:45;;;;;;;;;;;;;;;20.95;29.49;98477.66;5038521;28;957;-78
2023/10/06 00:53:11;;;;;;;;;;;;;;;20.67;30.05;98465.56;5071811;28;1906;-78
2023/10/06 00:55:37;;;;;;;;;;;;;;;20.75;30.05;98464.22;5072966;28;999;-78
2023/10/06 00:58:04;;;;;;;;;;;;;;;20.99;29.52;98467.09;5056951;28;901;-77
2023/10/06 01:00:31;;;;;;;;;;;;;;;21.10;29.39;98462.06;5072304;28;1015;-78
2023/10/06 01:02:57;;;;;;;;;;;;;;;21.09;29.45;98460.47;5072080;28;927;-78
2023/10/06 01:05:25;;;;;;;;;;;;;;;20.62;30.17;98456.75;5072133;28;1391;-78
2023/10/06 01:07:51;;;;;;;;;;;;;;;20.85;30.08;98461.66;5071806;28;950;-77
2023/10/06 01:10:17;;;;;;;;;;;;;;;20.66;30.03;98461.13;5056708;28;920;-77
2023/10/06 01:12:43;;;;;;;;;;;;;;;20.92;29.70;98456.69;5072471;28;1906;-78
2023/10/06 01:15:19;;;;;;;;;;;;;;;21.01;29.57;98453.31;5055802;28;875;-77
2023/10/06 01:17:45;;;;;;;;;;;;;;;20.73;30.20;98444.09;5070535;28;1023;-77
2023/10/06 01:22:57;;;;;;;;;;;;;;;20.95;29.94;98449.38;5072471;28;1490;-77
2023/10/06 01:25:24;;;;;;;;;;;;;;;20.99;29.55;98450.13;5055810;28;1145;-78
2023/10/06 01:27:50;;;;;;;;;;;;;;;20.99;29.62;98438.81;5072540;28;1047;-77
2023/10/06 01:32:43;;;;;;;;;;;;;;;21.14;29.45;98451.47;5018114;28;1973;-77
2023/10/06 01:35:12;;;;;;;;;;;;;;;20.97;29.78;98435.59;5034292;28;973;-77
2023/10/06 01:37:41;;;;;;;;;;;;;;;21.04;29.69;98447.59;5003711;28;1004;-77
2023/10/06 01:40:14;;;;;;;;;;;;;;;20.86;29.94;98440.63;5005327;28;1649;-77
2023/10/06 01:42:40;;;;;;;;;;;;;;;20.76;29.80;98448.06;5038242;28;1030;-77
2023/10/06 01:45:14;;;;;;;;;;;;;;;20.94;29.94;98442.94;5021119;28;1075;-77
2023/10/06 01:47:39;;;;;;;;;;;;;;;20.70;30.32;98447.75;5018017;28;1027;-78
2023/10/06 01:50:05;;;;;;;;;;;;;;;20.87;30.11;98442.22;5018030;28;946;-77
2023/10/06 01:52:30;;;;;;;;;;;;;;;20.70;30.20;98447.75;4985187;28;1903;-77
2023/10/06 01:55:09;;;;;;;;;;;;;;;20.68;30.29;98441.75;4985347;28;1168;-77
2023/10/06 01:57:34;;;;;;;;;;;;;;;20.86;30.00;98449.13;4987089;28;1285;-78
2023/10/06 02:00:00;;;;;;;;;;;;;;;20.81;30.10;98444.75;4984999;28;1331;-78
2023/10/06 02:02:27;;;;;;;;;;;;;;;20.74;30.21;98451.31;4985454;28;971;-78
2023/10/06 02:04:56;;;;;;;;;;;;;;;20.80;30.27;98449.59;5001184;28;1119;-77
2023/10/06 02:07:22;;;;;;;;;;;;;;;20.70;30.23;98450.56;5017587;28;1032;-78
2023/10/06 02:09:49;;;;;;;;;;;;;;;20.51;30.57;98446.41;5017608;28;993;-77
2023/10/06 02:12:15;;;;;;;;;;;;;;;20.57;30.21;98451.59;5001413;28;1910;-78
2023/10/06 02:14:41;;;;;;;;;;;;;;;20.51;30.72;98448.44;5017328;28;1286;-77
2023/10/06 02:17:08;;;;;;;;;;;;;;;20.81;30.13;98445.53;5017677;28;990;-77
2023/10/06 02:19:34;;;;;;;;;;;;;;;20.83;30.19;98447.13;5007673;28;1226;-77
2023/10/06 02:21:59;;;;;;;;;;;;;;;20.86;30.23;98446.28;5017377;28;1360;-77
2023/10/06 02:24:25;;;;;;;;;;;;;;;20.85;29.91;98444.69;5000657;28;929;-78
2023/10/06 02:26:57;;;;;;;;;;;;;;;20.89;29.82;98446.25;5017634;28;1013;-77
2023/10/06 02:29:23;;;;;;;;;;;;;;;20.88;29.89;98441.00;5016075;28;1038;-78
2023/10/06 02:31:52;;;;;;;;;;;;;;;20.88;29.90;98441.81;5017397;28;1906;-78
2023/10/06 02:34:29;;;;;;;;;;;;;;;20.84;30.08;98438.25;5000855;28;1118;-78
2023/10/06 02:36:58;;;;;;;;;;;;;;;20.84;30.12;98440.28;5015040;28;930;-77
2023/10/06 02:39:31;;;;;;;;;;;;;;;20.84;30.10;98437.44;5016888;28;1013;-77
2023/10/06 02:41:57;;;;;;;;;;;;;;;21.19;29.42;98431.19;4997453;28;1112;-77
2023/10/06 02:44:23;;;;;;;;;;;;;;;20.67;30.18;98431.63;4997159;28;988;-77
2023/10/06 02:46:51;;;;;;;;;;;;;;;20.77;29.90;98429.84;4997181;28;1046;-77
2023/10/06 02:49:24;;;;;;;;;;;;;;;20.86;29.60;98434.97;4980387;28;985;-77
2023/10/06 02:51:50;;;;;;;;;;;;;;;20.89;29.97;98417.16;4997021;28;1910;-77
2023/10/06 02:56:43;;;;;;;;;;;;;;;20.91;29.53;98420.34;5013352;28;1250;-77
2023/10/06 02:59:20;;;;;;;;;;;;;;;21.01;29.75;98423.00;5043848;28;959;-78
2023/10/06 03:01:52;;;;;;;;;;;;;;;21.02;29.41;98420.97;5056324;28;930;-78
2023/10/06 03:04:26;;;;;;;;;;;;;;;21.00;29.61;98417.78;5039683;28;1006;-78
2023/10/06 03:06:55;;;;;;;;;;;;;;;20.86;29.69;98418.81;5040310;28;1206;-77
2023/10/06 03:09:20;;;;;;;;;;;;;;;21.03;29.32;98414.84;5039151;28;1198;-78
2023/10/06 03:11:49;;;;;;;;;;;;;;;20.97;29.57;98413.75;5042300;28;1977;-78
2023/10/06 03:14:24;;;;;;;;;;;;;;;21.10;29.48;98410.31;5079464;28;1187;-77
2023/10/06 03:16:51;;;;;;;;;;;;;;;20.87;29.71;98409.09;5080410;28;1196;-78
2023/10/06 03:19:22;;;;;;;;;;;;;;;20.63;30.30;98411.13;5062783;28;1152;-78
2023/10/06 03:21:48;;;;;;;;;;;;;;;20.67;30.50;98403.34;5079952;28;1256;-78
2023/10/06 03:24:20;;;;;;;;;;;;;;;20.87;30.04;98402.63;5078959;28;1244;-78
2023/10/06 03:26:46;;;;;;;;;;;;;;;20.57;30.30;98409.19;5080454;28;1235;-77
2023/10/06 03:29:39;;;;;;;;;;;;;;;20.65;30.18;98403.00;5095621;28;1150;-78
2023/10/06 03:31:57;;;;;;;;;;;;;;;20.65;30.17;98403.00;5058756;28;1906;-78
2023/10/06 03:34:23;;;;;;;;;;;;;;;20.97;29.69;98412.97;5059403;28;1286;-79
2023/10/06 03:36:52;;;;;;;;;;;;;;;20.70;30.14;98410.19;5051377;28;939;-79
2023/10/06 03:39:47;;;;;;;;;;;;;;;20.81;30.00;98411.59;5035227;28;1226;-77
2023/10/06 03:42:11;;;;;;;;;;;;;;;20.93;29.86;98406.56;5032663;28;1166;-77
2023/10/06 03:44:37;;;;;;;;;;;;;;;20.73;29.93;98404.50;5035229;28;1083;-77
2023/10/06 03:47:07;;;;;;;;;;;;;;;20.65;29.95;98408.66;5019274;28;1204;-76
2023/10/06 03:49:33;;;;;;;;;;;;;;;20.87;30.04;98405.47;5035572;28;1217;-77
2023/10/06 03:51:59;;;;;;;;;;;;;;;20.89;29.55;98414.34;5035443;28;1898;-77
2023/10/06 03:54:24;;;;;;;;;;;;;;;21.00;29.61;98417.78;5051566;28;1135;-77
2023/10/06 03:56:50;;;;;;;;;;;;;;;20.64;30.37;98412.72;5055436;28;1029;-78
2023/10/06 03:59:16;;;;;;;;;;;;;;;20.78;30.11;98412.47;5055602;28;1186;-77
2023/10/06 04:01:45;;;;;;;;;;;;;;;21.08;29.61;98422.84;5054745;28;922;-77
2023/10/06 04:04:12;;;;;;;;;;;;;;;20.84;29.77;98414.81;5006369;28;1155;-77
2023/10/06 04:06:38;;;;;;;;;;;;;;;20.68;29.95;98413.47;5038858;28;966;-77
2023/10/06 04:09:05;;;;;;;;;;;;;;;20.86;29.76;98412.34;5038333;28;974;-77
2023/10/06 04:11:31;;;;;;;;;;;;;;;21.03;29.37;98416.88;5039107;28;1906;-77
2023/10/06 04:13:57;;;;;;;;;;;;;;;20.93;29.94;98417.88;5021889;28;1020;-77
2023/10/06 04:16:23;;;;;;;;;;;;;;;21.02;29.48;98420.97;5039035;28;985;-77
2023/10/06 04:18:48;;;;;;;;;;;;;;;20.85;29.95;98416.41;5021982;28;1142;-77
2023/10/06 04:21:14;;;;;;;;;;;;;;;20.63;30.41;98413.94;5022617;28;1039;-77
2023/10/06 04:23:43;;;;;;;;;;;;;;;20.77;29.86;98421.38;5021824;28;965;-77
2023/10/06 04:26:09;;;;;;;;;;;;;;;20.84;29.78;98420.47;5038950;28;1059;-77
2023/10/06 04:28:35;;;;;;;;;;;;;;;21.00;29.43;98424.22;5021911;28;1082;-77
2023/10/06 04:31:05;;;;;;;;;;;;;;;21.18;29.37;98432.38;5038200;28;1095;-76
2023/10/06 04:33:31;;;;;;;;;;;;;;;20.97;29.44;98429.94;5056623;28;1984;-78
2023/10/06 04:35:59;;;;;;;;;;;;;;;20.72;30.24;98430.34;5035025;28;1057;-78
2023/10/06 04:38:26;;;;;;;;;;;;;;;20.58;30.14;98431.41;5034630;28;980;-77
2023/10/06 04:40:52;;;;;;;;;;;;;;;20.75;30.26;98427.47;5002683;28;1194;-77
2023/10/06 04:43:17;;;;;;;;;;;;;;;20.90;30.04;98430.88;5001810;28;1126;-77
2023/10/06 04:45:43;;;;;;;;;;;;;;;20.85;30.10;98439.84;5018701;28;1094;-78
2023/10/06 04:48:09;;;;;;;;;;;;;;;20.79;29.89;98435.91;5017693;28;939;-78
2023/10/06 04:50:35;;;;;;;;;;;;;;;20.67;30.09;98440.13;5018463;28;1245;-77
2023/10/06 04:53:00;;;;;;;;;;;;;;;21.02;29.77;98443.59;5001547;28;1973;-77
2023/10/06 04:55:26;;;;;;;;;;;;;;;21.01;29.81;98447.66;5035146;28;1044;-77
2023/10/06 04:57:51;;;;;;;;;;;;;;;21.06;29.77;98450.78;5034372;28;979;-77
2023/10/06 05:00:19;;;;;;;;;;;;;;;20.93;29.79;98451.81;5034538;28;990;-78
2023/10/06 05:02:47;;;;;;;;;;;;;;;20.92;30.17;98455.88;5018081;28;1243;-78
2023/10/06 05:05:21;;;;;;;;;;;;;;;20.89;30.43;98445.44;5018008;28;985;-78
2023/10/06 05:07:48;;;;;;;;;;;;;;;20.87;30.36;98447.88;5035359;28;940;-78
2023/10/06 05:10:14;;;;;;;;;;;;;;;20.95;30.01;98447.34;5017764;28;997;-78
2023/10/06 05:12:42;;;;;;;;;;;;;;;20.95;30.25;98455.03;5020824;28;1899;-78
2023/10/06 05:15:08;;;;;;;;;;;;;;;20.80;30.59;98463.75;5038164;28;1032;-78
2023/10/06 05:17:34;;;;;;;;;;;;;;;20.80;30.72;98469.41;5038667;28;898;-79
2023/10/06 05:20:00;;;;;;;;;;;;;;;20.71;30.73;98466.31;5005564;28;1222;-78
2023/10/06 05:22:25;;;;;;;;;;;;;;;20.67;31.09;98474.03;5027400;28;1070;-79
2023/10/06 05:24:51;;;;;;;;;;;;;;;20.69;31.21;98474.44;5041222;28;1230;-78
2023/10/06 05:27:19;;;;;;;;;;;;;;;20.83;31.06;98479.06;5058758;28;915;-79
2023/10/06 05:29:45;;;;;;;;;;;;;;;20.86;30.84;98480.22;5058098;28;969;-78
2023/10/06 05:32:11;;;;;;;;;;;;;;;20.69;31.20;98471.59;5057884;28;1906;-78
2023/10/06 05:34:40;;;;;;;;;;;;;;;20.95;30.89;98469.97;5024524;28;1589;-78
2023/10/06 05:37:08;;;;;;;;;;;;;;;20.69;31.42;98477.25;5009322;28;1095;-78
2023/10/06 05:39:34;;;;;;;;;;;;;;;21.00;30.54;98488.50;5017845;28;923;-78
2023/10/06 05:42:02;;;;;;;;;;;;;;;20.67;31.49;98485.34;5017970;28;1091;-78
2023/10/06 05:44:28;;;;;;;;;;;;;;;20.56;31.79;98484.72;5001421;28;975;-78
2023/10/06 05:46:54;;;;;;;;;;;;;;;20.89;31.06;98490.72;5005307;28;1339;-79
2023/10/06 05:49:21;;;;;;;;;;;;;;;20.72;31.45;98487.69;5004710;28;1279;-79
2023/10/06 05:51:49;;;;;;;;;;;;;;;21.02;30.80;98483.19;5037334;28;1906;-78
2023/10/06 05:54:21;;;;;;;;;;;;;;;21.13;30.75;98492.31;5021174;28;1109;-79
2023/10/06 05:56:53;;;;;;;;;;;;;;;21.03;30.80;98496.09;5005911;28;907;-79
2023/10/06 05:59:21;;;;;;;;;;;;;;;21.00;30.86;98496.97;5037483;28;911;-78
2023/10/06 06:01:56;;;;;;;;;;;;;;;20.85;31.29;98512.59;5004925;28;991;-78
2023/10/06 06:04:27;;;;;;;;;;;;;;;21.13;30.75;98512.09;5021707;28;967;-78
2023/10/06 06:07:02;;;;;;;;;;;;;;;21.05;30.64;98516.31;4998191;28;1052;-79
2023/10/06 06:09:27;;;;;;;;;;;;;;;21.05;30.63;98517.09;4967910;28;914;-79
2023/10/06 06:11:53;;;;;;;;;;;;;;;21.29;30.36;98525.59;5004402;28;1906;-79
2023/10/06 06:14:21;;;;;;;;;;;;;;;21.04;30.83;98514.72;5020372;28;1120;-78
2023/10/06 06:16:47;;;;;;;;;;;;;;;20.95;30.79;98522.94;5004731;28;1134;-78
2023/10/06 06:19:13;;;;;;;;;;;;;;;20.96;30.86;98522.50;5037198;28;1242;-79
2023/10/06 06:21:38;;;;;;;;;;;;;;;21.03;30.77;98524.41;5004282;28;1549;-79
2023/10/06 06:24:06;;;;;;;;;;;;;;;21.13;30.66;98529.09;5019637;28;1230;-79
2023/10/06 06:26:32;;;;;;;;;;;;;;;20.79;31.04;98524.38;5020743;28;1001;-79
2023/10/06 06:29:02;;;;;;;;;;;;;;;20.83;31.07;98521.50;5036457;28;999;-79
2023/10/06 06:31:34;;;;;;;;;;;;;;;21.13;30.47;98526.25;5021395;28;1004;-79
2023/10/06 06:34:04;;;;;;;;;;;;;;;20.85;31.03;98523.91;5020471;28;1158;-78
2023/10/06 06:36:33;;;;;;;;;;;;;;;21.20;30.47;98533.84;5020181;28;944;-79
2023/10/06 06:38:58;;;;;;;;;;;;;;;21.21;30.20;98522.09;5057176;28;1004;-78
2023/10/06 06:41:24;;;;;;;;;;;;;;;21.07;30.50;98525.16;5041202;28;946;-78
2023/10/06 06:43:54;;;;;;;;;;;;;;;20.93;30.76;98529.00;5057710;28;922;-78
2023/10/06 06:46:20;;;;;;;;;;;;;;;21.08;30.89;98526.75;5025392;28;1135;-78
2023/10/06 06:48:46;;;;;;;;;;;;;;;20.91;31.03;98528.63;5057232;28;880;-79
2023/10/06 06:51:31;;;;;;;;;;;;;;;21.10;30.83;98535.63;5022807;28;970;-78
2023/10/06 06:53:57;;;;;;;;;;;;;;;21.09;30.80;98534.03;5019511;28;2021;-79
2023/10/06 06:56:28;;;;;;;;;;;;;;;21.11;30.71;98537.22;5020498;28;1056;-79
2023/10/06 06:58:56;;;;;;;;;;;;;;;21.13;30.81;98533.94;5036708;28;1033;-79
2023/10/06 07:01:23;;;;;;;;;;;;;;;21.01;31.08;98526.88;5036242;28;978;-79
2023/10/06 07:03:49;;;;;;;;;;;;;;;21.11;31.20;98520.25;5003479;28;1009;-78
2023/10/06 07:06:16;;;;;;;;;;;;;;;21.28;30.86;98533.28;5019612;28;950;-78
2023/10/06 07:08:45;;;;;;;;;;;;;;;21.23;31.05;98519.63;5019971;28;993;-78
2023/10/06 07:11:10;;;;;;;;;;;;;;;21.27;30.97;98519.56;5019783;28;1157;-78
2023/10/06 07:13:36;;;;;;;;;;;;;;;21.22;31.32;98515.19;5035854;28;1902;-78
2023/10/06 07:16:05;;;;;;;;;;;;;;;20.99;31.49;98513.16;5019676;28;1193;-79
2023/10/06 07:18:31;;;;;;;;;;;;;;;21.12;31.57;98521.03;5019244;28;1221;-78
2023/10/06 07:20:56;;;;;;;;;;;;;;;21.12;31.52;98521.84;5020035;28;932;-78
2023/10/06 07:23:22;;;;;;;;;;;;;;;21.23;31.50;98511.13;5019260;28;1269;-78
2023/10/06 07:25:47;;;;;;;;;;;;;;;21.14;31.55;98513.72;5036141;28;1197;-79
2023/10/06 07:28:13;;;;;;;;;;;;;;;21.03;31.68;98524.41;5019309;28;1134;-78
2023/10/06 07:30:38;;;;;;;;;;;;;;;21.24;31.54;98524.06;5035618;28;1416;-78
2023/10/06 07:33:05;;;;;;;;;;;;;;;21.32;31.33;98525.56;5052026;28;1906;-79
2023/10/06 07:35:31;;;;;;;;;;;;;;;21.23;31.49;98528.09;5019277;28;1252;-79
2023/10/06 07:37:57;;;;;;;;;;;;;;;21.01;31.73;98532.53;5052047;28;1051;-78
2023/10/06 07:40:22;;;;;;;;;;;;;;;20.80;32.05;98528.81;5035934;28;950;-79
2023/10/06 07:42:51;;;;;;;;;;;;;;;21.22;31.36;98534.22;5052495;28;940;-78
2023/10/06 07:45:17;;;;;;;;;;;;;;;21.03;31.73;98533.69;5088921;28;868;-78
2023/10/06 07:47:43;;;;;;;;;;;;;;;20.96;31.55;98535.84;5090284;28;965;-79
2023/10/06 07:50:09;;;;;;;;;;;;;;;21.03;31.66;98547.03;5090028;28;948;-78
2023/10/06 07:52:38;;;;;;;;;;;;;;;21.28;31.38;98535.31;5021644;28;2113;-79
2023/10/06 07:55:09;;;;;;;;;;;;;;;21.31;31.05;98545.81;5022167;28;1283;-79
2023/10/06 07:57:37;;;;;;;;;;;;;;;20.90;31.66;98543.22;5039116;28;947;-79
2023/10/06 08:00:07;;;;;;;;;;;;;;;21.21;31.24;98547.56;5022224;28;951;-78
2023/10/06 08:02:41;;;;;;;;;;;;;;;20.91;31.65;98550.47;5039717;28;922;-79
2023/10/06 08:05:11;;;;;;;;;;;;;;;20.94;31.84;98558.09;5022039;28;1011;-79
2023/10/06 08:07:38;;;;;;;;;;;;;;;21.00;31.55;98557.19;5038377;28;1009;-79
2023/10/06 08:10:05;;;;;;;;;;;;;;;21.06;31.10;98561.13;5038016;28;1012;-78
2023/10/06 08:12:33;;;;;;;;;;;;;;;20.92;31.47;98560.56;5038713;28;1918;-78
2023/10/06 08:15:04;;;;;;;;;;;;;;;21.11;31.04;98559.06;5054647;28;964;-78
2023/10/06 08:17:29;;;;;;;;;;;;;;;21.12;31.09;98564.28;5022123;28;1008;-79
2023/10/06 08:19:55;;;;;;;;;;;;;;;21.01;31.40;98563.66;5021510;28;1286;-79
2023/10/06 08:22:24;;;;;;;;;;;;;;;20.83;31.56;98572.41;5021781;28;928;-79
2023/10/06 08:24:49;;;;;;;;;;;;;;;20.95;31.71;98576.69;5055418;28;1006;-79
2023/10/06 08:27:21;;;;;;;;;;;;;;;21.19;31.11;98572.69;5056924;28;1000;-79
2023/10/06 08:29:46;;;;;;;;;;;;;;;21.02;31.27;98579.38;5049953;28;1281;-79
2023/10/06 08:32:12;;;;;;;;;;;;;;;21.03;31.52;98586.66;5051271;28;1910;-78
2023/10/06 08:34:39;;;;;;;;;;;;;;;20.84;31.57;98578.88;5051214;28;1022;-78
2023/10/06 08:37:10;;;;;;;;;;;;;;;20.88;31.57;98579.59;5034533;28;1135;-79
2023/10/06 08:39:39;;;;;;;;;;;;;;;20.97;31.19;98582.69;5013754;28;1202;-79
2023/10/06 08:42:11;;;;;;;;;;;;;;;21.01;31.52;98591.94;5014892;28;934;-79
2023/10/06 08:44:40;;;;;;;;;;;;;;;20.76;31.77;98584.59;5031082;28;1126;-78
2023/10/06 08:47:06;;;;;;;;;;;;;;;21.12;31.02;98584.09;5017595;28;995;-79
2023/10/06 08:49:32;;;;;;;;;;;;;;;21.19;31.12;98586.81;5018421;28;1068;-79
2023/10/06 08:51:58;;;;;;;;;;;;;;;21.08;31.40;98589.00;5018456;28;1910;-79
2023/10/06 08:54:23;;;;;;;;;;;;;;;21.04;31.34;98591.09;5018467;28;1411;-79
2023/10/06 08:56:49;;;;;;;;;;;;;;;21.31;30.71;98591.91;4985967;28;1113;-79
2023/10/06 08:59:16;;;;;;;;;;;;;;;21.48;30.52;98592.03;5035100;28;1131;-79
2023/10/06 09:01:43;;;;;;;;;;;;;;;21.11;30.91;98581.69;5034964;28;1243;-78
2023/10/06 09:04:09;;;;;;;;;;;;;;;21.12;30.89;98584.09;4998650;28;1272;-78
2023/10/06 09:06:37;;;;;;;;;;;;;;;21.03;30.92;98589.47;4998608;28;1310;-79
2023/10/06 09:09:04;;;;;;;;;;;;;;;21.01;30.94;98587.09;5014746;28;896;-78
2023/10/06 09:11:38;;;;;;;;;;;;;;;21.13;30.82;98582.84;5015141;28;968;-79
2023/10/06 09:14:11;;;;;;;;;;;;;;;21.24;30.47;98571.38;4998520;28;950;-79
2023/10/06 09:16:57;;;;;;;;;;;;;;;21.33;30.11;98575.28;5005296;28;1109;-79
2023/10/06 09:19:23;;;;;;;;;;;;;;;21.26;30.46;98581.03;5001722;28;1293;-78
2023/10/06 09:22:01;;;;;;;;;;;;;;;21.14;30.75;98575.16;5034970;28;994;-79
2023/10/06 09:24:27;;;;;;;;;;;;;;;21.11;30.77;98582.50;5017847;28;927;-79
2023/10/06 09:26:53;;;;;;;;;;;;;;;20.88;30.93;98582.41;5017898;28;1005;-79
2023/10/06 09:29:31;;;;;;;;;;;;;;;20.84;31.01;98578.88;5017661;28;984;-79
2023/10/06 09:31:57;;;;;;;;;;;;;;;21.00;31.06;98576.19;5001556;28;1977;-78
2023/10/06 09:34:25;;;;;;;;;;;;;;;21.07;30.75;98567.59;4985453;28;1224;-79
2023/10/06 09:36:51;;;;;;;;;;;;;;;21.16;30.63;98567.84;5017681;28;911;-78
2023/10/06 09:39:35;;;;;;;;;;;;;;;20.98;30.87;98567.31;5001017;28;997;-79
2023/10/06 09:42:01;;;;;;;;;;;;;;;21.19;30.60;98572.69;5001806;28;961;-79
2023/10/06 09:44:27;;;;;;;;;;;;;;;20.87;31.04;98566.69;4997736;28;1045;-78
2023/10/06 09:46:55;;;;;;;;;;;;;;;20.98;30.81;98572.97;4965554;28;964;-79
2023/10/06 09:49:21;;;;;;;;;;;;;;;20.94;30.90;98569.44;4997585;28;958;-78
2023/10/06 09:51:47;;;;;;;;;;;;;;;21.07;30.88;98559.09;4997837;28;1973;-78
2023/10/06 09:54:12;;;;;;;;;;;;;;;21.03;30.66;98564.00;4997095;28;1159;-78
2023/10/06 09:56:41;;;;;;;;;;;;;;;21.06;31.09;98574.50;4981469;28;1114;-78
2023/10/06 09:59:07;;;;;;;;;;;;;;;20.83;31.34;98569.59;4979862;28;959;-79
2023/10/06 10:01:34;;;;;;;;;;;;;;;20.84;31.42;98573.22;4997906;28;930;-79
2023/10/06 10:04:00;;;;;;;;;;;;;;;20.80;31.30;98567.59;4964896;28;1034;-79
2023/10/06 10:06:25;;;;;;;;;;;;;;;20.93;30.90;98564.97;5036915;28;1375;-79
2023/10/06 10:08:51;;;;;;;;;;;;;;;21.05;30.95;98561.56;5040177;28;962;-79
2023/10/06 10:11:28;;;;;;;;;;;;;;;20.85;30.98;98558.63;5040362;28;930;-78
2023/10/06 10:14:18;;;;;;;;;;;;;;;21.17;30.71;98555.31;5056224;28;1910;-79
2023/10/06 10:17:02;;;;;;;;;;;;;;;21.14;30.80;98547.69;5003956;28;1486;-79
2023/10/06 10:19:28;;;;;;;;;;;;;;;20.92;31.25;98546.41;5016575;28;946;-78
2023/10/06 10:21:54;;;;;;;;;;;;;;;20.90;31.34;98551.69;5000470;28;1012;-79
2023/10/06 10:24:20;;;;;;;;;;;;;;;20.97;31.20;98554.41;5000479;28;1034;-78
2023/10/06 10:26:46;;;;;;;;;;;;;;;20.99;31.23;98540.66;5016906;28;993;-79
2023/10/06 10:29:17;;;;;;;;;;;;;;;21.04;30.92;98540.16;5016437;28;1160;-79
2023/10/06 10:31:44;;;;;;;;;;;;;;;20.88;31.08;98545.66;4999564;28;1922;-78
2023/10/06 10:34:33;;;;;;;;;;;;;;;20.70;31.26;98541.06;4999940;28;1058;-78
2023/10/06 10:37:07;;;;;;;;;;;;;;;21.09;31.00;98548.19;5002353;28;826;-78
2023/10/06 10:39:41;;;;;;;;;;;;;;;21.09;30.67;98545.34;5015856;28;1118;-79
2023/10/06 10:42:07;;;;;;;;;;;;;;;20.88;31.19;98540.00;4999505;28;819;-78
2023/10/06 10:44:35;;;;;;;;;;;;;;;21.20;30.46;98534.66;4999655;28;1203;-78
2023/10/06 10:47:02;;;;;;;;;;;;;;;21.38;30.24;98539.22;4999665;28;1151;-78
2023/10/06 10:49:32;;;;;;;;;;;;;;;21.33;30.13;98532.81;4999879;28;778;-78
2023/10/06 10:52:02;;;;;;;;;;;;;;;21.13;30.63;98531.91;4984337;28;1914;-79
2023/10/06 10:54:28;;;;;;;;;;;;;;;21.14;30.67;98529.88;5047670;28;1382;-79
2023/10/06 10:57:01;;;;;;;;;;;;;;;21.13;30.53;98531.91;5005931;28;1128;-79
2023/10/06 10:59:40;;;;;;;;;;;;;;;21.20;30.51;98528.19;5055281;28;901;-78
2023/10/06 11:02:08;;;;;;;;;;;;;;;20.66;30.53;98421.56;5039122;28;804;-79
2023/10/06 11:04:37;;;;;;;;;;;;;;;21.02;30.79;98517.16;5038875;28;1300;-79
2023/10/06 11:07:14;;;;;;;;;;;;;;;21.15;30.69;98525.84;5063564;28;782;-79
2023/10/06 11:09:40;;;;;;;;;;;;;;;21.22;30.48;98523.69;5059292;28;1269;-78
2023/10/06 11:12:25;;;;;;;;;;;;;;;20.97;30.74;98515.59;5076412;28;1906;-78
2023/10/06 11:14:55;;;;;;;;;;;;;;;20.97;31.00;98514.81;5077475;28;880;-78
2023/10/06 11:17:22;;;;;;;;;;;;;;;21.18;30.37;98514.44;5060278;28;1249;-79
2023/10/06 11:19:49;;;;;;;;;;;;;;;21.29;30.31;98506.56;5075996;28;697;-78
2023/10/06 11:22:19;;;;;;;;;;;;;;;21.41;30.15;98510.06;5077560;28;767;-79
2023/10/06 11:24:45;;;;;;;;;;;;;;;21.18;30.46;98505.97;5076416;28;790;-79
2023/10/06 11:27:22;;;;;;;;;;;;;;;21.12;30.66;98507.69;5077415;28;825;-79
2023/10/06 11:29:57;;;;;;;;;;;;;;;21.14;30.47;98505.25;5077069;28;773;-79
2023/10/06 11:32:23;;;;;;;;;;;;;;;21.14;30.69;98508.06;5075669;28;1909;-78
2023/10/06 11:34:51;;;;;;;;;;;;;;;21.13;30.52;98505.66;5077343;28;731;-78
2023/10/06 11:37:23;;;;;;;;;;;;;;;21.03;30.78;98501.78;5076027;28;779;-78
2023/10/06 11:39:49;;;;;;;;;;;;;;;21.12;30.39;98501.22;5075953;28;793;-78
2023/10/06 11:42:29;;;;;;;;;;;;;;;21.22;30.35;98506.72;5075764;28;1552;-78
2023/10/06 11:44:59;;;;;;;;;;;;;;;21.08;30.41;98498.44;5076485;28;751;-79
2023/10/06 11:47:28;;;;;;;;;;;;;;;21.32;30.20;98497.25;5076102;28;688;-79
2023/10/06 11:49:53;;;;;;;;;;;;;;;21.39;30.24;98496.31;5076483;28;842;-78
2023/10/06 11:52:19;;;;;;;;;;;;;;;21.11;30.28;98497.59;5075629;28;1988;-79
2023/10/06 11:54:46;;;;;;;;;;;;;;;21.21;30.37;98496.63;5074867;28;1115;-78
2023/10/06 11:57:13;;;;;;;;;;;;;;;21.35;30.26;98512.59;5075366;28;712;-78
2023/10/06 11:59:47;;;;;;;;;;;;;;;21.43;29.90;98507.59;5076039;28;814;-78
2023/10/06 12:02:12;;;;;;;;;;;;;;;21.40;30.24;98508.44;5058930;28;846;-78
2023/10/06 12:04:38;;;;;;;;;;;;;;;21.53;29.88;98501.75;5075064;28;771;-79
2023/10/06 12:07:04;;;;;;;;;;;;;;;21.29;30.40;98509.41;5076836;28;758;-79
2023/10/06 12:09:29;;;;;;;;;;;;;;;20.98;30.76;98505.88;5037258;28;849;-78
2023/10/06 12:11:59;;;;;;;;;;;;;;;21.46;30.05;98512.41;5053754;28;1914;-78
2023/10/06 12:14:25;;;;;;;;;;;;;;;21.36;29.74;98507.72;5037464;28;964;-78
2023/10/06 12:16:51;;;;;;;;;;;;;;;21.21;30.17;98510.78;5054179;28;747;-78
2023/10/06 12:19:16;;;;;;;;;;;;;;;21.08;30.44;98510.56;5021091;28;901;-79
2023/10/06 12:21:42;;;;;;;;;;;;;;;21.20;30.16;98520.50;5036952;28;729;-79
2023/10/06 12:24:11;;;;;;;;;;;;;;;21.05;30.52;98510.66;5020531;28;790;-79
2023/10/06 12:26:40;;;;;;;;;;;;;;;21.20;30.30;98514.84;5037906;28;818;-79
2023/10/06 12:29:05;;;;;;;;;;;;;;;21.02;30.25;98519.97;5037519;28;946;-79
2023/10/06 12:31:31;;;;;;;;;;;;;;;21.26;30.26;98515.16;5054054;28;771;-78
2023/10/06 12:33:57;;;;;;;;;;;;;;;20.94;30.47;98521.34;5037290;28;1907;-79
2023/10/06 12:36:25;;;;;;;;;;;;;;;21.11;30.08;98520.25;5054391;28;985;-78
2023/10/06 12:38:50;;;;;;;;;;;;;;;21.23;30.23;98525.28;5037555;28;1007;-78
2023/10/06 12:41:17;;;;;;;;;;;;;;;21.04;30.48;98520.38;5073061;28;936;-78
2023/10/06 12:43:47;;;;;;;;;;;;;;;21.16;30.36;98522.59;5075637;28;923;-79
2023/10/06 12:46:12;;;;;;;;;;;;;;;21.17;29.89;98524.19;5076383;28;1029;-79
2023/10/06 12:48:38;;;;;;;;;;;;;;;21.14;30.24;98525.06;5075108;28;975;-79
2023/10/06 12:51:05;;;;;;;;;;;;;;;21.13;29.97;98529.09;5075688;28;915;-78
2023/10/06 12:53:33;;;;;;;;;;;;;;;21.27;30.02;98520.38;5074697;28;1898;-78
2023/10/06 12:55:59;;;;;;;;;;;;;;;21.51;29.44;98523.25;5054084;28;973;-79
2023/10/06 12:58:24;;;;;;;;;;;;;;;21.26;29.62;98521.59;5021236;28;1098;-79
2023/10/06 13:00:50;;;;;;;;;;;;;;;21.23;29.74;98532.97;5021409;28;1033;-78
2023/10/06 13:03:15;;;;;;;;;;;;;;;21.42;29.49;98528.66;5037320;28;1149;-79
2023/10/06 13:05:45;;;;;;;;;;;;;;;21.42;29.50;98531.47;5054286;28;971;-79
2023/10/06 13:08:16;;;;;;;;;;;;;;;21.12;30.08;98533.16;5037703;28;911;-78
2023/10/06 13:10:42;;;;;;;;;;;;;;;21.13;30.07;98529.09;5021713;28;923;-79
2023/10/06 13:13:07;;;;;;;;;;;;;;;21.13;29.98;98537.56;4997650;28;2277;-78